< < Back
Terminal Aerodrome Forecast


Current Version              Previous Versions:   1  2  3  4  5  6  7  8  9  

Terminal Aerodrome Forecast

644
FTUS44 KMRX 060523
TAFTYS
TAF
KTYS 060523Z 0606/0706 24004KT P6SM SCT025 OVC080
     FM060800 23003KT 4SM BR BKN020
      TEMPO 0608/0611 2SM BR SCT005 BKN010
     FM061330 23005KT P6SM BKN025
     FM061500 24008KT P6SM SCT040 SCT250
     FM070100 23004KT P6SM FEW050=



Latest METAR

201
SAUS80 KWBC 070200 RRA
MTRTYS
METAR KTYS 070153Z 22003KT 10SM CLR 26/20 A3007 RMK AO2 SLP173
T02560200


USA.gov is the U.S. government's official web portal to all federal, state and local government web resources and services.